createdAt,value
2022-09-28T01:00:49.839Z,4.00
2022-09-28T01:03:17.973Z,4.10
2022-09-28T01:05:47.240Z,3.30
2022-09-28T01:08:17.725Z,3.00
2022-09-28T01:10:45.904Z,4.10
2022-09-28T01:13:15.995Z,3.30
2022-09-28T01:15:54.715Z,3.40
2022-09-28T01:18:54.000Z,2.90
2022-09-28T01:21:26.357Z,3.30
2022-09-28T01:24:11.439Z,2.90
2022-09-28T01:26:54.637Z,4.00
2022-09-28T01:29:28.906Z,3.10
2022-09-28T01:32:06.244Z,3.20
2022-09-28T01:34:44.450Z,2.80
2022-09-28T01:37:16.930Z,4.40
2022-09-28T01:39:49.123Z,5.20
2022-09-28T01:42:28.820Z,5.70
2022-09-28T01:45:04.121Z,4.40
2022-09-28T01:47:38.094Z,3.50
2022-09-28T01:50:19.700Z,3.50
2022-09-28T01:53:21.052Z,5.30
2022-09-28T01:55:56.655Z,4.80
2022-09-28T01:58:39.641Z,5.70
2022-09-28T02:01:26.941Z,4.70
2022-09-28T02:04:27.176Z,2.90
2022-09-28T02:07:06.679Z,3.10
2022-09-28T02:09:42.889Z,3.60
2022-09-28T02:12:21.086Z,4.70
2022-09-28T02:14:52.935Z,5.10
2022-09-28T02:19:49.904Z,4.00
2022-09-28T02:22:32.716Z,4.20
2022-09-28T02:25:11.153Z,3.60
2022-09-28T02:27:54.608Z,4.80
2022-09-28T02:30:22.892Z,4.10
2022-09-28T02:32:57.258Z,3.60
2022-09-28T02:35:25.475Z,3.10
2022-09-28T02:37:55.289Z,5.40
2022-09-28T02:40:29.248Z,3.70
2022-09-28T02:43:00.299Z,4.00
2022-09-28T02:45:34.858Z,3.20
2022-09-28T02:48:43.195Z,3.60
2022-09-28T02:51:49.156Z,4.60
2022-09-28T02:54:37.684Z,3.40
2022-09-28T02:57:18.029Z,4.20
2022-09-28T03:00:02.264Z,4.70
2022-09-28T03:02:59.689Z,4.60
2022-09-28T03:05:45.673Z,5.40
2022-09-28T03:08:22.508Z,4.40
2022-09-28T03:10:59.737Z,6.00
2022-09-28T03:13:29.164Z,4.00
2022-09-28T03:16:20.005Z,3.70
2022-09-28T03:18:49.652Z,6.70
2022-09-28T03:21:17.747Z,6.00
2022-09-28T03:23:47.432Z,3.60
2022-09-28T03:26:18.115Z,3.70
2022-09-28T03:28:46.307Z,6.30
2022-09-28T03:31:17.599Z,3.80
2022-09-28T03:33:45.566Z,4.50
2022-09-28T03:36:15.185Z,7.20
2022-09-28T03:38:43.313Z,8.80
2022-09-28T03:41:11.685Z,13.70
2022-09-28T03:43:41.811Z,9.50
2022-09-28T03:46:09.981Z,9.50
2022-09-28T03:48:41.900Z,8.30
2022-09-28T03:51:12.446Z,10.60
2022-09-28T03:53:40.688Z,15.40
2022-09-28T03:56:12.807Z,11.00
2022-09-28T03:58:41.078Z,15.70
2022-09-28T04:01:16.493Z,19.70
2022-09-28T04:03:46.693Z,20.50
2022-09-28T04:06:14.862Z,14.00
2022-09-28T04:08:43.633Z,12.40
2022-09-28T04:11:12.103Z,9.10
2022-09-28T04:13:40.029Z,11.40
2022-09-28T04:16:11.835Z,7.10
2022-09-28T04:18:42.611Z,7.40
2022-09-28T04:21:38.348Z,6.50
2022-09-28T04:24:11.544Z,4.80
2022-09-28T04:26:39.791Z,5.90
2022-09-28T04:29:16.165Z,4.30
2022-09-28T04:31:51.237Z,12.50
2022-09-28T04:34:22.494Z,8.00
2022-09-28T04:36:51.263Z,8.50
2022-09-28T04:39:19.744Z,5.90
2022-09-28T04:41:50.546Z,6.50
2022-09-28T04:44:18.582Z,8.10
2022-09-28T04:46:48.159Z,6.20
2022-09-28T04:49:31.414Z,6.40
2022-09-28T04:52:06.411Z,6.20
2022-09-28T04:54:36.147Z,4.50
2022-09-28T04:57:06.282Z,5.20
2022-09-28T04:59:34.552Z,6.30
2022-09-28T05:02:02.624Z,6.50
2022-09-28T05:04:49.703Z,5.50
2022-09-28T05:07:36.317Z,5.10
2022-09-28T05:10:06.501Z,7.30
2022-09-28T05:12:34.788Z,6.60
2022-09-28T05:15:02.754Z,5.30
2022-09-28T05:17:31.867Z,5.40
2022-09-28T05:20:20.090Z,6.50
2022-09-28T05:22:48.261Z,6.70
2022-09-28T05:25:16.373Z,5.30
2022-09-28T05:28:03.468Z,6.50
2022-09-28T05:31:02.289Z,6.70
2022-09-28T05:33:51.028Z,6.10
2022-09-28T05:36:19.760Z,6.30
2022-09-28T05:38:47.778Z,4.90
2022-09-28T05:41:15.663Z,4.70
2022-09-28T05:43:45.764Z,4.80
2022-09-28T05:46:14.684Z,4.10
2022-09-28T05:48:43.029Z,5.90
2022-09-28T05:51:10.944Z,5.00
2022-09-28T05:53:39.158Z,5.30
2022-09-28T05:56:07.244Z,6.60
2022-09-28T05:58:37.624Z,4.70
2022-09-28T06:01:05.648Z,4.90
2022-09-28T06:03:33.732Z,5.90
2022-09-28T06:06:02.764Z,6.60
2022-09-28T06:08:32.999Z,5.10
2022-09-28T06:11:33.126Z,4.30
2022-09-28T06:14:06.209Z,4.40
2022-09-28T06:16:35.087Z,4.60
2022-09-28T06:19:03.245Z,4.70
2022-09-28T06:21:49.224Z,5.90
2022-09-28T06:24:17.313Z,6.60
2022-09-28T06:26:45.399Z,6.40
2022-09-28T06:29:19.740Z,5.30
2022-09-28T06:31:48.335Z,5.00
2022-09-28T06:34:17.745Z,4.90
2022-09-28T06:36:46.008Z,4.10
2022-09-28T06:39:14.072Z,5.80
2022-09-28T06:41:42.220Z,4.10
2022-09-28T06:44:16.131Z,4.40
2022-09-28T06:47:16.547Z,5.40
2022-09-28T06:50:12.414Z,4.50
2022-09-28T06:53:09.662Z,5.50
2022-09-28T06:55:50.235Z,5.00
2022-09-28T06:58:21.259Z,4.50
2022-09-28T07:00:52.077Z,4.10
2022-09-28T07:03:22.437Z,9.40
2022-09-28T07:06:11.580Z,12.90
2022-09-28T07:08:39.849Z,10.00
2022-09-28T07:11:27.053Z,5.90
2022-09-28T07:14:24.837Z,10.00
2022-09-28T07:17:13.238Z,14.90
2022-09-28T07:19:43.290Z,7.40
2022-09-28T07:22:18.598Z,5.10
2022-09-28T07:24:48.770Z,3.90
2022-09-28T07:27:29.168Z,4.20
2022-09-28T07:30:16.675Z,4.70
2022-09-28T07:33:06.220Z,4.60
2022-09-28T07:35:42.150Z,4.80
2022-09-28T07:38:11.293Z,4.80
2022-09-28T07:40:57.652Z,5.80
2022-09-28T07:43:26.908Z,4.60
2022-09-28T07:45:55.015Z,4.60
2022-09-28T07:48:23.301Z,4.10
2022-09-28T07:51:21.312Z,2.50
2022-09-28T07:54:01.992Z,2.60
2022-09-28T07:56:46.230Z,1.90
2022-09-28T07:59:23.439Z,1.80
2022-09-28T08:02:10.974Z,2.80
2022-09-28T08:04:40.501Z,2.10
2022-09-28T08:07:10.707Z,2.20
2022-09-28T08:09:38.860Z,2.50
2022-09-28T08:12:22.036Z,2.40
2022-09-28T08:15:11.668Z,4.80
2022-09-28T08:17:51.228Z,2.60
2022-09-28T08:20:39.979Z,2.60
2022-09-28T08:23:09.267Z,2.00
2022-09-28T08:25:38.901Z,3.10
2022-09-28T08:28:08.021Z,2.40
2022-09-28T08:30:46.856Z,2.50
2022-09-28T08:33:28.259Z,3.10
2022-09-28T08:36:28.752Z,2.40
2022-09-28T08:39:02.912Z,2.10
2022-09-28T08:42:06.102Z,2.20
2022-09-28T08:45:15.408Z,2.30
2022-09-28T08:48:23.997Z,2.30
2022-09-28T08:51:18.499Z,2.30
2022-09-28T08:54:22.600Z,2.10
2022-09-28T08:57:18.285Z,1.40
2022-09-28T08:59:53.509Z,1.90
2022-09-28T09:02:43.338Z,1.90
2022-09-28T09:05:20.249Z,1.70
2022-09-28T09:08:41.669Z,1.90
2022-09-28T09:11:50.822Z,2.10
2022-09-28T09:15:02.243Z,1.70
2022-09-28T09:17:59.683Z,1.70
2022-09-28T09:20:59.093Z,1.40
2022-09-28T09:23:53.209Z,1.60
2022-09-28T09:26:35.057Z,1.60
2022-09-28T09:29:16.602Z,1.40
2022-09-28T09:32:23.775Z,1.60
2022-09-28T09:34:58.915Z,1.50
2022-09-28T09:37:48.087Z,1.90
2022-09-28T09:41:07.902Z,2.00
2022-09-28T09:44:48.955Z,2.30
2022-09-28T09:47:49.395Z,1.80
2022-09-28T09:50:46.543Z,1.40
2022-09-28T09:53:22.422Z,1.80
2022-09-28T09:55:57.443Z,2.00
2022-09-28T09:58:38.850Z,2.10
2022-09-28T10:01:20.032Z,2.00
2022-09-28T10:04:16.043Z,1.90
2022-09-28T10:06:45.253Z,1.50
2022-09-28T10:09:42.547Z,2.00
2022-09-28T10:12:31.196Z,2.30
2022-09-28T10:15:03.012Z,2.30
2022-09-28T10:17:35.672Z,2.20
2022-09-28T10:20:23.257Z,2.00
2022-09-28T10:23:02.144Z,1.50
2022-09-28T10:25:34.112Z,1.60
2022-09-28T10:28:06.344Z,1.60
2022-09-28T10:33:34.155Z,1.10
2022-09-28T10:36:07.066Z,1.70
2022-09-28T10:38:35.743Z,1.40
2022-09-28T10:41:11.724Z,1.90
2022-09-28T10:44:06.457Z,1.50
2022-09-28T10:47:03.164Z,2.10
2022-09-28T10:49:47.017Z,9.40
2022-09-28T10:52:31.133Z,5.90
2022-09-28T10:54:59.546Z,5.90
2022-09-28T10:57:36.871Z,3.90
2022-09-28T11:00:30.370Z,2.90
2022-09-28T11:03:30.760Z,1.90
2022-09-28T11:06:06.036Z,1.40
2022-09-28T11:11:16.653Z,1.50
2022-09-28T11:13:55.982Z,1.80
2022-09-28T11:16:30.631Z,1.50
2022-09-28T11:19:05.686Z,1.40
2022-09-28T11:21:44.074Z,1.60
2022-09-28T11:24:18.945Z,1.70
2022-09-28T11:27:00.366Z,2.00
2022-09-28T11:29:39.122Z,2.30
2022-09-28T11:32:41.361Z,2.00
2022-09-28T11:35:52.869Z,1.60
2022-09-28T11:39:01.280Z,1.60
2022-09-28T11:42:19.868Z,1.50
2022-09-28T11:44:49.504Z,1.60
2022-09-28T11:47:43.579Z,1.50
2022-09-28T11:50:26.596Z,1.50
2022-09-28T11:55:46.169Z,1.20
2022-09-28T11:58:27.402Z,1.40
2022-09-28T12:01:18.601Z,1.30
2022-09-28T12:04:28.567Z,1.40
2022-09-28T12:07:03.974Z,1.20
2022-09-28T12:10:03.488Z,1.70
2022-09-28T12:12:39.411Z,1.30
2022-09-28T12:15:26.763Z,1.00
2022-09-28T12:18:00.980Z,1.30
2022-09-28T12:21:05.234Z,1.50
2022-09-28T12:23:37.036Z,1.10
2022-09-28T12:26:22.322Z,1.10
2022-09-28T12:28:56.980Z,1.20
2022-09-28T12:31:40.086Z,1.50
2022-09-28T12:34:10.193Z,1.20
2022-09-28T12:36:48.040Z,1.10
2022-09-28T12:39:53.589Z,1.10
2022-09-28T12:42:31.816Z,0.90
2022-09-28T12:45:05.421Z,1.00
2022-09-28T12:47:39.087Z,1.20
2022-09-28T12:50:38.460Z,1.50
2022-09-28T12:53:26.459Z,1.50
2022-09-28T12:56:07.095Z,1.60
2022-09-28T12:59:15.099Z,1.30
2022-09-28T13:02:24.238Z,0.90
2022-09-28T13:05:19.726Z,1.30
2022-09-28T13:08:14.005Z,1.30
2022-09-28T13:10:52.879Z,1.30
2022-09-28T13:13:29.519Z,1.50
2022-09-28T13:16:13.950Z,1.30
2022-09-28T13:19:18.897Z,1.60
2022-09-28T13:22:07.581Z,1.30
2022-09-28T13:24:45.173Z,1.80
2022-09-28T13:27:40.450Z,1.80
2022-09-28T13:30:23.521Z,1.40
2022-09-28T13:32:54.705Z,1.80
2022-09-28T13:35:23.617Z,1.90
2022-09-28T13:38:23.504Z,2.00
2022-09-28T13:41:06.927Z,1.30
2022-09-28T13:43:42.897Z,1.10
2022-09-28T13:46:21.810Z,1.30
2022-09-28T13:48:58.907Z,1.60
2022-09-28T13:51:48.150Z,1.60
2022-09-28T13:54:43.083Z,1.20
2022-09-28T13:57:20.880Z,1.60
2022-09-28T14:00:12.089Z,1.40
2022-09-28T14:03:06.710Z,1.20
2022-09-28T14:05:44.448Z,1.10
2022-09-28T14:08:34.756Z,1.00
2022-09-28T14:11:24.832Z,1.30
2022-09-28T14:14:02.237Z,1.30
2022-09-28T14:16:32.444Z,1.40
2022-09-28T14:19:17.293Z,2.40
2022-09-28T14:21:45.290Z,1.40
2022-09-28T14:24:37.419Z,1.30
2022-09-28T14:27:11.204Z,1.30
2022-09-28T14:29:39.824Z,1.70
2022-09-28T14:32:10.959Z,1.30
2022-09-28T14:34:45.439Z,1.60
2022-09-28T14:37:58.281Z,1.40
2022-09-28T14:40:50.260Z,1.50
2022-09-28T14:43:24.264Z,1.70
2022-09-28T14:46:14.969Z,4.20
2022-09-28T14:49:05.052Z,2.20
2022-09-28T14:51:35.259Z,1.10
2022-09-28T14:54:14.271Z,1.30
2022-09-28T14:56:57.360Z,1.60
2022-09-28T14:59:30.440Z,1.80
2022-09-28T15:02:06.302Z,1.80
2022-09-28T15:04:39.247Z,1.40
2022-09-28T15:07:29.761Z,1.50
2022-09-28T15:10:00.229Z,1.50
2022-09-28T15:12:31.936Z,1.30
2022-09-28T15:15:02.825Z,1.60
2022-09-28T15:17:39.695Z,1.90
2022-09-28T15:20:30.487Z,1.70
2022-09-28T15:23:00.142Z,1.40
2022-09-28T15:25:30.652Z,1.50
2022-09-28T15:28:17.571Z,2.10
2022-09-28T15:30:45.795Z,2.30
2022-09-28T15:33:47.059Z,2.60
2022-09-28T15:36:22.397Z,2.90
2022-09-28T15:39:20.861Z,5.10
2022-09-28T15:41:51.156Z,7.50
2022-09-28T15:44:29.580Z,1.80
2022-09-28T15:47:14.050Z,2.10
2022-09-28T15:50:02.700Z,2.70
2022-09-28T15:52:43.712Z,1.90
2022-09-28T15:55:19.850Z,2.20
2022-09-28T15:57:48.023Z,2.80
2022-09-28T16:00:26.980Z,3.10
2022-09-28T16:03:01.895Z,2.80
2022-09-28T16:05:42.534Z,3.10
2022-09-28T16:08:27.332Z,3.40
2022-09-28T16:11:04.657Z,3.00
2022-09-28T16:13:35.024Z,2.70
2022-09-28T16:16:03.035Z,2.80
2022-09-28T16:18:40.592Z,2.50
2022-09-28T16:21:36.841Z,2.20
2022-09-28T16:24:08.183Z,2.60
2022-09-28T16:26:39.427Z,3.10
2022-09-28T16:29:25.740Z,3.40
2022-09-28T16:31:54.593Z,4.10
2022-09-28T16:34:27.311Z,2.80
2022-09-28T16:36:55.644Z,2.30
2022-09-28T16:39:23.734Z,2.50
2022-09-28T16:41:56.076Z,4.90
2022-09-28T16:44:30.720Z,26.30
2022-09-28T16:47:00.846Z,16.30
2022-09-28T16:49:31.801Z,7.90
2022-09-28T16:52:01.280Z,10.30
2022-09-28T16:54:47.793Z,8.00
2022-09-28T16:57:17.475Z,9.90
2022-09-28T16:59:46.500Z,50.50
2022-09-28T17:02:45.746Z,25.50
2022-09-28T17:05:20.446Z,14.30
2022-09-28T17:08:03.361Z,20.40
2022-09-28T17:11:02.500Z,11.70
2022-09-28T17:13:34.007Z,7.50
2022-09-28T17:16:09.578Z,8.70
2022-09-28T17:18:42.343Z,4.90
2022-09-28T17:21:15.974Z,4.30
2022-09-28T17:23:49.206Z,4.80
2022-09-28T17:26:31.838Z,3.70
2022-09-28T17:29:01.963Z,4.20
2022-09-28T17:31:30.491Z,3.90
2022-09-28T17:33:58.592Z,4.10
2022-09-28T17:36:27.087Z,6.30
2022-09-28T17:38:55.107Z,14.90
2022-09-28T17:41:23.160Z,16.20
2022-09-28T17:43:51.076Z,16.60
2022-09-28T17:46:31.650Z,13.20
2022-09-28T17:49:02.181Z,16.40
2022-09-28T17:51:33.846Z,13.20
2022-09-28T17:54:02.389Z,12.00
2022-09-28T17:56:32.579Z,9.20
2022-09-28T17:59:04.887Z,9.20
2022-09-28T18:01:41.109Z,8.20
2022-09-28T18:04:23.085Z,6.60
2022-09-28T18:07:00.532Z,6.50
2022-09-28T18:09:28.611Z,7.30
2022-09-28T18:12:04.100Z,7.60
2022-09-28T18:14:32.956Z,8.50
2022-09-28T18:17:01.189Z,7.70
2022-09-28T18:19:32.117Z,6.50
2022-09-28T18:22:08.320Z,6.70
2022-09-28T18:24:36.421Z,7.60
2022-09-28T18:27:09.191Z,7.80
2022-09-28T18:29:37.537Z,7.60
2022-09-28T18:32:05.771Z,7.90
2022-09-28T18:34:37.737Z,7.70
2022-09-28T18:37:06.197Z,5.50
2022-09-28T18:39:40.684Z,8.30
2022-09-28T18:42:23.717Z,8.00
2022-09-28T18:44:57.258Z,17.20
2022-09-28T18:47:25.757Z,11.70
2022-09-28T18:49:54.202Z,9.80
2022-09-28T18:52:22.184Z,6.30
2022-09-28T18:54:50.852Z,10.20
2022-09-28T18:57:19.360Z,8.60
2022-09-28T18:59:47.480Z,8.60
2022-09-28T19:02:15.617Z,8.70
2022-09-28T19:04:44.204Z,6.30
2022-09-28T19:07:19.299Z,5.40
2022-09-28T19:09:47.248Z,8.00
2022-09-28T19:12:15.208Z,6.80
2022-09-28T19:14:43.147Z,6.90
2022-09-28T19:17:12.013Z,8.60
2022-09-28T19:19:42.740Z,7.60
2022-09-28T19:22:12.471Z,10.10
2022-09-28T19:24:40.652Z,9.60
2022-09-28T19:27:08.671Z,22.60
2022-09-28T19:29:36.549Z,10.50
2022-09-28T19:32:04.549Z,9.30
2022-09-28T19:34:32.484Z,14.90
2022-09-28T19:37:03.863Z,13.10
2022-09-28T19:39:32.381Z,9.50
2022-09-28T19:42:01.596Z,7.40
2022-09-28T19:44:29.963Z,8.20
2022-09-28T19:47:10.193Z,6.50
2022-09-28T19:49:40.736Z,4.90
2022-09-28T19:52:17.691Z,7.00
2022-09-28T19:54:57.320Z,4.40
2022-09-28T19:57:30.997Z,27.80
2022-09-28T20:00:03.545Z,14.40
2022-09-28T20:02:35.594Z,9.00
2022-09-28T20:05:03.999Z,4.30
2022-09-28T20:07:33.510Z,4.30
2022-09-28T20:10:01.497Z,5.90
2022-09-28T20:12:29.453Z,5.50
2022-09-28T20:14:57.921Z,3.70
2022-09-28T20:17:25.960Z,3.70
2022-09-28T20:19:54.227Z,3.60
2022-09-28T20:22:22.226Z,5.20
2022-09-28T20:24:50.198Z,5.20
2022-09-28T20:27:18.373Z,3.60
2022-09-28T20:29:46.449Z,5.40
2022-09-28T20:32:14.313Z,5.10
2022-09-28T20:34:42.318Z,3.70
2022-09-28T20:37:12.579Z,4.70
2022-09-28T20:39:44.774Z,4.30
2022-09-28T20:44:43.869Z,2.80
2022-09-28T20:47:12.037Z,5.50
2022-09-28T20:49:40.291Z,5.10
2022-09-28T20:52:09.006Z,4.80
2022-09-28T20:54:38.221Z,5.50
2022-09-28T20:57:17.467Z,4.30
2022-09-28T20:59:53.761Z,5.00
2022-09-28T21:02:22.911Z,3.90
2022-09-28T21:04:51.179Z,3.90
2022-09-28T21:07:19.160Z,4.70
2022-09-28T21:09:47.250Z,4.00
2022-09-28T21:12:16.877Z,5.40
2022-09-28T21:14:44.825Z,3.90
2022-09-28T21:17:14.229Z,3.60
2022-09-28T21:19:49.472Z,4.00
2022-09-28T21:22:17.579Z,5.90
2022-09-28T21:24:45.471Z,5.80
2022-09-28T21:27:13.620Z,6.00
2022-09-28T21:29:41.539Z,3.90
2022-09-28T21:32:09.407Z,5.50
2022-09-28T21:34:37.236Z,4.00
2022-09-28T21:37:05.726Z,3.90
2022-09-28T21:39:33.711Z,5.50
2022-09-28T21:42:01.683Z,6.00
2022-09-28T21:44:29.622Z,5.40
2022-09-28T21:46:57.641Z,4.80
2022-09-28T21:49:25.669Z,4.80
2022-09-28T21:51:53.633Z,5.50
2022-09-28T21:54:22.082Z,4.10
2022-09-28T21:56:50.058Z,4.40
2022-09-28T21:59:18.135Z,4.70
2022-09-28T22:01:46.354Z,5.90
2022-09-28T22:04:14.827Z,8.00
2022-09-28T22:06:42.779Z,7.40
2022-09-28T22:09:10.652Z,5.10
2022-09-28T22:11:38.656Z,9.00
2022-09-28T22:14:06.722Z,6.10
2022-09-28T22:16:34.763Z,7.20
2022-09-28T22:19:02.733Z,5.50
2022-09-28T22:21:33.432Z,7.40
2022-09-28T22:24:03.777Z,6.20
2022-09-28T22:26:33.713Z,6.90
2022-09-28T22:29:04.980Z,5.60
2022-09-28T22:31:36.034Z,8.00
2022-09-28T22:34:05.219Z,5.80
2022-09-28T22:36:33.993Z,5.40
2022-09-28T22:39:02.476Z,4.20
2022-09-28T22:41:30.566Z,7.00
2022-09-28T22:43:59.112Z,5.00
2022-09-28T22:46:29.429Z,5.00
2022-09-28T22:48:58.989Z,4.80
2022-09-28T22:51:29.185Z,6.90
2022-09-28T22:53:58.315Z,9.10
2022-09-28T22:56:27.067Z,4.90
2022-09-28T22:58:55.779Z,3.80
2022-09-28T23:01:27.232Z,4.00
2022-09-28T23:03:56.550Z,5.30
2022-09-28T23:06:26.482Z,5.60
2022-09-28T23:08:54.624Z,5.30
2022-09-28T23:11:22.691Z,5.20
2022-09-28T23:13:55.637Z,4.90
2022-09-28T23:16:25.851Z,4.40
2022-09-28T23:18:55.527Z,3.20
2022-09-28T23:21:26.313Z,4.30
2022-09-28T23:23:57.215Z,2.90
2022-09-28T23:26:28.376Z,2.50
2022-09-28T23:28:56.487Z,3.40
2022-09-28T23:31:28.135Z,3.40
2022-09-28T23:34:06.492Z,2.90
2022-09-28T23:36:34.647Z,3.60
2022-09-28T23:39:03.251Z,3.80
2022-09-28T23:41:31.188Z,4.00
2022-09-28T23:43:59.082Z,3.90
2022-09-28T23:46:27.284Z,3.90
2022-09-28T23:48:55.254Z,3.40
2022-09-28T23:51:23.138Z,3.70
2022-09-28T23:53:51.021Z,2.80
2022-09-28T23:56:19.009Z,3.90
2022-09-28T23:58:46.836Z,2.80
